sensor_id;sensor_type;location;lat;lon;timestamp;temperature;humidity
65034;DHT22;51601;51.356;12.458;2024-02-26T00:02:08;4.10;93.90
65034;DHT22;51601;51.356;12.458;2024-02-26T00:06:24;4.00;94.90
65034;DHT22;51601;51.356;12.458;2024-02-26T00:10:42;4.00;95.80
65034;DHT22;51601;51.356;12.458;2024-02-26T00:15:06;4.00;96.60
65034;DHT22;51601;51.356;12.458;2024-02-26T00:19:26;3.90;97.50
65034;DHT22;51601;51.356;12.458;2024-02-26T00:23:46;4.00;98.40
65034;DHT22;51601;51.356;12.458;2024-02-26T00:28:04;4.00;99.00
65034;DHT22;51601;51.356;12.458;2024-02-26T00:32:28;4.00;99.90
65034;DHT22;51601;51.356;12.458;2024-02-26T00:36:48;4.00;99.90
65034;DHT22;51601;51.356;12.458;2024-02-26T00:41:07;4.10;99.90
65034;DHT22;51601;51.356;12.458;2024-02-26T00:45:25;4.10;99.90
65034;DHT22;51601;51.356;12.458;2024-02-26T00:49:43;4.10;99.90
65034;DHT22;51601;51.356;12.458;2024-02-26T00:54:03;4.10;99.90
65034;DHT22;51601;51.356;12.458;2024-02-26T00:58:23;4.10;99.90
65034;DHT22;51601;51.356;12.458;2024-02-26T01:02:41;4.20;99.90
65034;DHT22;51601;51.356;12.458;2024-02-26T01:06:59;4.10;99.90
65034;DHT22;51601;51.356;12.458;2024-02-26T01:11:18;4.10;99.90
65034;DHT22;51601;51.356;12.458;2024-02-26T01:15:35;4.10;99.90
65034;DHT22;51601;51.356;12.458;2024-02-26T01:19:53;4.10;99.90
65034;DHT22;51601;51.356;12.458;2024-02-26T01:24:11;4.10;99.90
65034;DHT22;51601;51.356;12.458;2024-02-26T01:28:30;4.10;99.90
65034;DHT22;51601;51.356;12.458;2024-02-26T01:32:47;4.10;99.90
65034;DHT22;51601;51.356;12.458;2024-02-26T01:37:05;4.10;99.90
65034;DHT22;51601;51.356;12.458;2024-02-26T01:41:23;4.10;99.90
65034;DHT22;51601;51.356;12.458;2024-02-26T01:45:43;4.10;99.90
65034;DHT22;51601;51.356;12.458;2024-02-26T01:49:59;4.00;99.90
65034;DHT22;51601;51.356;12.458;2024-02-26T01:54:18;3.90;99.90
65034;DHT22;51601;51.356;12.458;2024-02-26T01:58:36;3.90;99.90
65034;DHT22;51601;51.356;12.458;2024-02-26T02:02:55;3.80;99.90
65034;DHT22;51601;51.356;12.458;2024-02-26T02:07:14;3.70;99.90
65034;DHT22;51601;51.356;12.458;2024-02-26T02:11:33;3.60;99.90
65034;DHT22;51601;51.356;12.458;2024-02-26T02:15:51;3.60;99.90
65034;DHT22;51601;51.356;12.458;2024-02-26T02:20:15;3.50;99.90
65034;DHT22;51601;51.356;12.458;2024-02-26T02:24:34;3.50;99.90
65034;DHT22;51601;51.356;12.458;2024-02-26T02:28:51;3.50;99.90
65034;DHT22;51601;51.356;12.458;2024-02-26T02:33:09;3.40;99.90
65034;DHT22;51601;51.356;12.458;2024-02-26T02:37:30;3.50;99.90
65034;DHT22;51601;51.356;12.458;2024-02-26T02:41:50;3.50;99.90
65034;DHT22;51601;51.356;12.458;2024-02-26T02:46:09;3.50;99.90
65034;DHT22;51601;51.356;12.458;2024-02-26T02:50:27;3.50;99.90
65034;DHT22;51601;51.356;12.458;2024-02-26T02:54:45;3.50;99.90
65034;DHT22;51601;51.356;12.458;2024-02-26T02:59:05;3.40;99.90
65034;DHT22;51601;51.356;12.458;2024-02-26T03:03:25;3.40;99.90
65034;DHT22;51601;51.356;12.458;2024-02-26T03:07:46;3.40;99.90
65034;DHT22;51601;51.356;12.458;2024-02-26T03:12:04;3.40;99.90
65034;DHT22;51601;51.356;12.458;2024-02-26T03:16:24;3.40;99.90
65034;DHT22;51601;51.356;12.458;2024-02-26T03:20:43;3.30;99.90
65034;DHT22;51601;51.356;12.458;2024-02-26T03:25:01;3.30;99.90
65034;DHT22;51601;51.356;12.458;2024-02-26T03:29:19;3.20;99.90
65034;DHT22;51601;51.356;12.458;2024-02-26T03:33:39;3.10;99.90
65034;DHT22;51601;51.356;12.458;2024-02-26T03:37:58;3.10;99.90
65034;DHT22;51601;51.356;12.458;2024-02-26T03:42:16;3.10;99.90
65034;DHT22;51601;51.356;12.458;2024-02-26T03:46:34;3.00;99.90
65034;DHT22;51601;51.356;12.458;2024-02-26T03:50:54;2.90;99.90
65034;DHT22;51601;51.356;12.458;2024-02-26T03:55:14;2.90;99.90
65034;DHT22;51601;51.356;12.458;2024-02-26T03:59:32;2.90;99.90
65034;DHT22;51601;51.356;12.458;2024-02-26T04:03:50;2.80;99.90
65034;DHT22;51601;51.356;12.458;2024-02-26T04:08:09;2.80;99.90
65034;DHT22;51601;51.356;12.458;2024-02-26T04:12:26;2.70;99.90
65034;DHT22;51601;51.356;12.458;2024-02-26T04:16:44;2.70;99.90
65034;DHT22;51601;51.356;12.458;2024-02-26T04:21:02;2.70;99.90
65034;DHT22;51601;51.356;12.458;2024-02-26T04:25:24;2.60;99.90
65034;DHT22;51601;51.356;12.458;2024-02-26T04:29:44;2.60;99.90
65034;DHT22;51601;51.356;12.458;2024-02-26T04:34:02;2.60;99.90
65034;DHT22;51601;51.356;12.458;2024-02-26T04:38:20;2.60;99.90
65034;DHT22;51601;51.356;12.458;2024-02-26T04:42:40;2.60;99.90
65034;DHT22;51601;51.356;12.458;2024-02-26T04:46:56;2.50;99.90
65034;DHT22;51601;51.356;12.458;2024-02-26T04:51:14;2.50;99.90
65034;DHT22;51601;51.356;12.458;2024-02-26T04:55:32;2.40;99.90
65034;DHT22;51601;51.356;12.458;2024-02-26T04:59:52;2.50;99.90
65034;DHT22;51601;51.356;12.458;2024-02-26T05:04:14;2.50;99.90
65034;DHT22;51601;51.356;12.458;2024-02-26T05:08:33;2.50;99.90
65034;DHT22;51601;51.356;12.458;2024-02-26T05:12:54;2.50;99.90
65034;DHT22;51601;51.356;12.458;2024-02-26T05:17:13;2.50;99.90
65034;DHT22;51601;51.356;12.458;2024-02-26T05:21:33;2.60;99.90
65034;DHT22;51601;51.356;12.458;2024-02-26T05:25:51;2.60;99.90
65034;DHT22;51601;51.356;12.458;2024-02-26T05:30:10;2.60;99.90
65034;DHT22;51601;51.356;12.458;2024-02-26T05:34:29;2.60;99.90
65034;DHT22;51601;51.356;12.458;2024-02-26T05:38:48;2.50;99.90
65034;DHT22;51601;51.356;12.458;2024-02-26T05:43:06;2.50;99.90
65034;DHT22;51601;51.356;12.458;2024-02-26T05:47:24;2.60;99.90
65034;DHT22;51601;51.356;12.458;2024-02-26T05:51:50;2.50;99.90
65034;DHT22;51601;51.356;12.458;2024-02-26T05:56:07;2.50;99.90
65034;DHT22;51601;51.356;12.458;2024-02-26T06:00:25;2.50;99.90
65034;DHT22;51601;51.356;12.458;2024-02-26T06:04:43;2.50;99.90
65034;DHT22;51601;51.356;12.458;2024-02-26T06:09:05;2.60;99.90
65034;DHT22;51601;51.356;12.458;2024-02-26T06:13:22;2.70;99.90
65034;DHT22;51601;51.356;12.458;2024-02-26T06:17:40;2.70;99.90
65034;DHT22;51601;51.356;12.458;2024-02-26T06:21:58;2.70;99.90
65034;DHT22;51601;51.356;12.458;2024-02-26T06:26:18;2.80;99.90
65034;DHT22;51601;51.356;12.458;2024-02-26T06:30:37;2.80;99.90
65034;DHT22;51601;51.356;12.458;2024-02-26T06:34:56;2.80;99.90
65034;DHT22;51601;51.356;12.458;2024-02-26T06:39:13;2.80;99.90
65034;DHT22;51601;51.356;12.458;2024-02-26T06:43:33;2.90;99.90
65034;DHT22;51601;51.356;12.458;2024-02-26T06:47:49;2.90;99.90
65034;DHT22;51601;51.356;12.458;2024-02-26T06:52:08;3.00;99.90
65034;DHT22;51601;51.356;12.458;2024-02-26T06:56:26;3.00;99.90
65034;DHT22;51601;51.356;12.458;2024-02-26T07:00:48;3.10;99.90
65034;DHT22;51601;51.356;12.458;2024-02-26T07:05:08;3.30;99.90
65034;DHT22;51601;51.356;12.458;2024-02-26T07:09:26;3.40;99.90
65034;DHT22;51601;51.356;12.458;2024-02-26T07:13:44;3.60;99.90
65034;DHT22;51601;51.356;12.458;2024-02-26T07:18:04;3.90;99.90
65034;DHT22;51601;51.356;12.458;2024-02-26T07:22:23;4.10;99.90
65034;DHT22;51601;51.356;12.458;2024-02-26T07:26:44;4.30;99.90
65034;DHT22;51601;51.356;12.458;2024-02-26T07:31:03;4.50;99.90
65034;DHT22;51601;51.356;12.458;2024-02-26T07:35:22;4.80;99.90
65034;DHT22;51601;51.356;12.458;2024-02-26T07:39:42;5.50;99.90
65034;DHT22;51601;51.356;12.458;2024-02-26T07:44:00;6.40;99.90
65034;DHT22;51601;51.356;12.458;2024-02-26T07:48:18;7.30;99.90
65034;DHT22;51601;51.356;12.458;2024-02-26T07:52:40;7.90;99.90
65034;DHT22;51601;51.356;12.458;2024-02-26T07:56:57;8.40;99.90
65034;DHT22;51601;51.356;12.458;2024-02-26T08:01:15;8.80;97.40
65034;DHT22;51601;51.356;12.458;2024-02-26T08:05:33;9.20;92.30
65034;DHT22;51601;51.356;12.458;2024-02-26T08:09:52;9.50;88.30
65034;DHT22;51601;51.356;12.458;2024-02-26T08:14:09;9.80;85.70
65034;DHT22;51601;51.356;12.458;2024-02-26T08:18:27;10.10;79.90
65034;DHT22;51601;51.356;12.458;2024-02-26T08:22:45;10.10;79.20
65034;DHT22;51601;51.356;12.458;2024-02-26T08:27:05;10.20;78.30
65034;DHT22;51601;51.356;12.458;2024-02-26T08:31:24;10.40;78.00
65034;DHT22;51601;51.356;12.458;2024-02-26T08:35:42;10.40;76.10
65034;DHT22;51601;51.356;12.458;2024-02-26T08:40:01;10.40;76.10
65034;DHT22;51601;51.356;12.458;2024-02-26T08:44:23;10.40;76.10
65034;DHT22;51601;51.356;12.458;2024-02-26T08:48:43;10.70;76.50
65034;DHT22;51601;51.356;12.458;2024-02-26T08:53:01;11.10;75.80
65034;DHT22;51601;51.356;12.458;2024-02-26T08:57:22;11.50;74.50
65034;DHT22;51601;51.356;12.458;2024-02-26T09:01:41;12.00;72.90
65034;DHT22;51601;51.356;12.458;2024-02-26T09:05:58;12.40;71.40
65034;DHT22;51601;51.356;12.458;2024-02-26T09:10:16;12.90;70.10
65034;DHT22;51601;51.356;12.458;2024-02-26T09:14:37;13.30;68.70
65034;DHT22;51601;51.356;12.458;2024-02-26T09:18:57;13.90;67.20
65034;DHT22;51601;51.356;12.458;2024-02-26T09:23:16;14.30;65.20
65034;DHT22;51601;51.356;12.458;2024-02-26T09:27:34;14.60;64.30
65034;DHT22;51601;51.356;12.458;2024-02-26T09:31:59;14.90;62.80
65034;DHT22;51601;51.356;12.458;2024-02-26T09:36:18;15.10;61.60
65034;DHT22;51601;51.356;12.458;2024-02-26T09:40:39;15.30;60.30
65034;DHT22;51601;51.356;12.458;2024-02-26T09:45:00;15.50;60.30
65034;DHT22;51601;51.356;12.458;2024-02-26T09:49:22;15.60;59.10
65034;DHT22;51601;51.356;12.458;2024-02-26T09:53:44;15.60;59.10
65034;DHT22;51601;51.356;12.458;2024-02-26T09:58:04;15.50;58.50
65034;DHT22;51601;51.356;12.458;2024-02-26T10:02:23;15.30;58.10
65034;DHT22;51601;51.356;12.458;2024-02-26T10:06:42;15.00;58.00
65034;DHT22;51601;51.356;12.458;2024-02-26T10:11:05;14.80;58.90
65034;DHT22;51601;51.356;12.458;2024-02-26T10:15:24;14.80;59.30
65034;DHT22;51601;51.356;12.458;2024-02-26T10:19:42;14.80;59.30
65034;DHT22;51601;51.356;12.458;2024-02-26T10:24:00;14.90;59.00
65034;DHT22;51601;51.356;12.458;2024-02-26T10:28:19;14.90;58.40
65034;DHT22;51601;51.356;12.458;2024-02-26T10:32:36;14.90;58.70
65034;DHT22;51601;51.356;12.458;2024-02-26T10:36:57;14.90;58.60
65034;DHT22;51601;51.356;12.458;2024-02-26T10:41:15;14.80;58.60
65034;DHT22;51601;51.356;12.458;2024-02-26T10:45:34;14.70;57.70
65034;DHT22;51601;51.356;12.458;2024-02-26T10:49:55;14.50;57.30
65034;DHT22;51601;51.356;12.458;2024-02-26T10:54:15;14.20;57.90
65034;DHT22;51601;51.356;12.458;2024-02-26T10:58:34;13.90;58.90
65034;DHT22;51601;51.356;12.458;2024-02-26T11:02:53;13.60;60.10
65034;DHT22;51601;51.356;12.458;2024-02-26T11:07:13;13.40;61.40
65034;DHT22;51601;51.356;12.458;2024-02-26T11:11:32;13.20;62.00
65034;DHT22;51601;51.356;12.458;2024-02-26T11:15:53;13.10;62.00
65034;DHT22;51601;51.356;12.458;2024-02-26T11:20:14;13.10;62.50
65034;DHT22;51601;51.356;12.458;2024-02-26T11:24:34;13.10;62.30
65034;DHT22;51601;51.356;12.458;2024-02-26T11:28:55;13.00;62.10
65034;DHT22;51601;51.356;12.458;2024-02-26T11:33:14;12.80;62.40
65034;DHT22;51601;51.356;12.458;2024-02-26T11:37:36;12.70;62.70
65034;DHT22;51601;51.356;12.458;2024-02-26T11:42:05;12.70;63.00
65034;DHT22;51601;51.356;12.458;2024-02-26T11:46:27;12.60;63.20
65034;DHT22;51601;51.356;12.458;2024-02-26T11:50:48;12.60;63.80
65034;DHT22;51601;51.356;12.458;2024-02-26T11:55:09;12.60;64.80
65034;DHT22;51601;51.356;12.458;2024-02-26T11:59:38;12.60;65.40
65034;DHT22;51601;51.356;12.458;2024-02-26T12:03:57;12.60;65.80
65034;DHT22;51601;51.356;12.458;2024-02-26T12:08:15;12.70;66.10
65034;DHT22;51601;51.356;12.458;2024-02-26T12:12:37;12.80;66.20
65034;DHT22;51601;51.356;12.458;2024-02-26T12:16:58;12.80;66.10
65034;DHT22;51601;51.356;12.458;2024-02-26T12:21:15;12.80;66.00
65034;DHT22;51601;51.356;12.458;2024-02-26T12:25:33;12.70;66.20
65034;DHT22;51601;51.356;12.458;2024-02-26T12:29:53;12.70;66.70
65034;DHT22;51601;51.356;12.458;2024-02-26T12:34:12;12.60;67.00
65034;DHT22;51601;51.356;12.458;2024-02-26T12:38:32;12.60;67.10
65034;DHT22;51601;51.356;12.458;2024-02-26T12:42:53;12.60;66.90
65034;DHT22;51601;51.356;12.458;2024-02-26T12:47:14;12.60;66.70
65034;DHT22;51601;51.356;12.458;2024-02-26T12:51:35;12.50;66.60
65034;DHT22;51601;51.356;12.458;2024-02-26T12:55:52;12.40;66.90
65034;DHT22;51601;51.356;12.458;2024-02-26T13:00:15;12.40;67.10
65034;DHT22;51601;51.356;12.458;2024-02-26T13:04:35;12.30;67.40
65034;DHT22;51601;51.356;12.458;2024-02-26T13:08:56;12.40;67.40
65034;DHT22;51601;51.356;12.458;2024-02-26T13:13:18;12.50;67.70
65034;DHT22;51601;51.356;12.458;2024-02-26T13:17:37;12.40;66.90
65034;DHT22;51601;51.356;12.458;2024-02-26T13:22:03;12.40;66.90
65034;DHT22;51601;51.356;12.458;2024-02-26T13:26:23;12.40;67.10
65034;DHT22;51601;51.356;12.458;2024-02-26T13:30:41;12.40;67.20
65034;DHT22;51601;51.356;12.458;2024-02-26T13:35:05;12.40;67.20
65034;DHT22;51601;51.356;12.458;2024-02-26T13:39:25;12.40;67.20
65034;DHT22;51601;51.356;12.458;2024-02-26T13:43:44;12.40;67.00
65034;DHT22;51601;51.356;12.458;2024-02-26T13:48:04;12.30;66.70
65034;DHT22;51601;51.356;12.458;2024-02-26T13:52:24;12.30;66.60
65034;DHT22;51601;51.356;12.458;2024-02-26T13:56:43;12.20;66.80
65034;DHT22;51601;51.356;12.458;2024-02-26T14:01:05;12.10;66.80
65034;DHT22;51601;51.356;12.458;2024-02-26T14:05:24;12.10;66.90
65034;DHT22;51601;51.356;12.458;2024-02-26T14:09:41;12.10;67.20
65034;DHT22;51601;51.356;12.458;2024-02-26T14:14:16;12.10;66.60
65034;DHT22;51601;51.356;12.458;2024-02-26T14:18:33;12.00;66.50
65034;DHT22;51601;51.356;12.458;2024-02-26T14:22:52;12.00;66.50
65034;DHT22;51601;51.356;12.458;2024-02-26T14:27:10;12.00;67.10
65034;DHT22;51601;51.356;12.458;2024-02-26T14:31:32;11.90;67.60
65034;DHT22;51601;51.356;12.458;2024-02-26T14:35:51;11.90;67.80
65034;DHT22;51601;51.356;12.458;2024-02-26T14:40:10;11.90;67.90
65034;DHT22;51601;51.356;12.458;2024-02-26T14:44:31;11.90;68.20
65034;DHT22;51601;51.356;12.458;2024-02-26T14:48:50;11.90;68.90
65034;DHT22;51601;51.356;12.458;2024-02-26T14:53:10;11.80;67.90
65034;DHT22;51601;51.356;12.458;2024-02-26T14:57:28;11.80;68.00
65034;DHT22;51601;51.356;12.458;2024-02-26T15:01:46;11.80;68.00
65034;DHT22;51601;51.356;12.458;2024-02-26T15:06:05;11.70;67.90
65034;DHT22;51601;51.356;12.458;2024-02-26T15:10:25;11.70;68.20
65034;DHT22;51601;51.356;12.458;2024-02-26T15:14:46;11.60;68.60
65034;DHT22;51601;51.356;12.458;2024-02-26T15:19:04;11.60;69.10
65034;DHT22;51601;51.356;12.458;2024-02-26T15:23:27;11.50;69.70
65034;DHT22;51601;51.356;12.458;2024-02-26T15:27:43;11.40;70.10
65034;DHT22;51601;51.356;12.458;2024-02-26T15:32:02;11.40;70.50
65034;DHT22;51601;51.356;12.458;2024-02-26T15:36:19;11.40;70.90
65034;DHT22;51601;51.356;12.458;2024-02-26T15:40:39;11.30;71.40
65034;DHT22;51601;51.356;12.458;2024-02-26T15:44:56;11.30;72.10
65034;DHT22;51601;51.356;12.458;2024-02-26T15:49:14;11.20;72.70
65034;DHT22;51601;51.356;12.458;2024-02-26T15:53:32;11.10;72.90
65034;DHT22;51601;51.356;12.458;2024-02-26T15:57:51;11.00;73.30
65034;DHT22;51601;51.356;12.458;2024-02-26T16:02:11;10.90;73.80
65034;DHT22;51601;51.356;12.458;2024-02-26T16:06:32;10.90;74.20
65034;DHT22;51601;51.356;12.458;2024-02-26T16:10:50;10.80;74.60
65034;DHT22;51601;51.356;12.458;2024-02-26T16:15:10;10.70;75.00
65034;DHT22;51601;51.356;12.458;2024-02-26T16:19:29;10.70;75.40
65034;DHT22;51601;51.356;12.458;2024-02-26T16:23:48;10.60;75.70
65034;DHT22;51601;51.356;12.458;2024-02-26T16:28:05;10.60;76.00
65034;DHT22;51601;51.356;12.458;2024-02-26T16:32:25;10.50;76.30
65034;DHT22;51601;51.356;12.458;2024-02-26T16:36:41;10.50;76.60
65034;DHT22;51601;51.356;12.458;2024-02-26T16:40:59;10.50;76.80
65034;DHT22;51601;51.356;12.458;2024-02-26T16:45:18;10.40;77.10
65034;DHT22;51601;51.356;12.458;2024-02-26T16:49:37;10.40;77.30
65034;DHT22;51601;51.356;12.458;2024-02-26T16:53:57;10.40;77.70
65034;DHT22;51601;51.356;12.458;2024-02-26T16:58:15;10.30;78.00
65034;DHT22;51601;51.356;12.458;2024-02-26T17:02:33;10.30;78.40
65034;DHT22;51601;51.356;12.458;2024-02-26T17:06:52;10.20;78.70
65034;DHT22;51601;51.356;12.458;2024-02-26T17:11:12;10.20;79.10
65034;DHT22;51601;51.356;12.458;2024-02-26T17:15:33;10.20;79.40
65034;DHT22;51601;51.356;12.458;2024-02-26T17:19:51;10.20;79.70
65034;DHT22;51601;51.356;12.458;2024-02-26T17:24:11;10.10;79.90
65034;DHT22;51601;51.356;12.458;2024-02-26T17:28:30;10.10;80.40
65034;DHT22;51601;51.356;12.458;2024-02-26T17:32:49;10.00;81.10
65034;DHT22;51601;51.356;12.458;2024-02-26T17:37:07;10.00;81.70
65034;DHT22;51601;51.356;12.458;2024-02-26T17:41:26;9.90;82.40
65034;DHT22;51601;51.356;12.458;2024-02-26T17:45:46;9.90;82.90
65034;DHT22;51601;51.356;12.458;2024-02-26T17:50:05;9.80;83.50
65034;DHT22;51601;51.356;12.458;2024-02-26T17:54:23;9.80;84.00
65034;DHT22;51601;51.356;12.458;2024-02-26T17:58:41;9.80;84.70
65034;DHT22;51601;51.356;12.458;2024-02-26T18:02:58;9.80;85.30
65034;DHT22;51601;51.356;12.458;2024-02-26T18:07:18;9.70;85.60
65034;DHT22;51601;51.356;12.458;2024-02-26T18:11:37;9.70;85.90
65034;DHT22;51601;51.356;12.458;2024-02-26T18:15:57;9.70;86.30
65034;DHT22;51601;51.356;12.458;2024-02-26T18:20:17;9.60;86.50
65034;DHT22;51601;51.356;12.458;2024-02-26T18:24:37;9.60;86.80
65034;DHT22;51601;51.356;12.458;2024-02-26T18:28:56;9.60;87.30
65034;DHT22;51601;51.356;12.458;2024-02-26T18:33:15;9.60;87.60
65034;DHT22;51601;51.356;12.458;2024-02-26T18:37:35;9.50;87.70
65034;DHT22;51601;51.356;12.458;2024-02-26T18:41:53;9.50;87.80
65034;DHT22;51601;51.356;12.458;2024-02-26T18:46:11;9.40;87.70
65034;DHT22;51601;51.356;12.458;2024-02-26T18:50:30;9.40;88.00
65034;DHT22;51601;51.356;12.458;2024-02-26T18:54:50;9.30;88.00
65034;DHT22;51601;51.356;12.458;2024-02-26T18:59:08;9.30;88.30
65034;DHT22;51601;51.356;12.458;2024-02-26T19:03:32;9.20;88.60
65034;DHT22;51601;51.356;12.458;2024-02-26T19:07:52;9.20;88.90
65034;DHT22;51601;51.356;12.458;2024-02-26T19:12:14;9.00;89.10
65034;DHT22;51601;51.356;12.458;2024-02-26T19:16:33;9.00;89.50
65034;DHT22;51601;51.356;12.458;2024-02-26T19:20:51;8.90;90.00
65034;DHT22;51601;51.356;12.458;2024-02-26T19:25:11;8.80;90.30
65034;DHT22;51601;51.356;12.458;2024-02-26T19:29:32;8.80;90.70
65034;DHT22;51601;51.356;12.458;2024-02-26T19:33:52;8.80;91.00
65034;DHT22;51601;51.356;12.458;2024-02-26T19:38:09;8.70;91.20
65034;DHT22;51601;51.356;12.458;2024-02-26T19:42:28;8.70;91.50
65034;DHT22;51601;51.356;12.458;2024-02-26T19:46:48;8.60;91.70
65034;DHT22;51601;51.356;12.458;2024-02-26T19:51:07;8.60;92.10
65034;DHT22;51601;51.356;12.458;2024-02-26T19:55:25;8.60;92.40
65034;DHT22;51601;51.356;12.458;2024-02-26T19:59:47;8.50;92.80
65034;DHT22;51601;51.356;12.458;2024-02-26T20:04:04;8.50;93.20
65034;DHT22;51601;51.356;12.458;2024-02-26T20:08:28;8.50;93.40
65034;DHT22;51601;51.356;12.458;2024-02-26T20:12:46;8.50;93.50
65034;DHT22;51601;51.356;12.458;2024-02-26T20:17:05;8.50;93.70
65034;DHT22;51601;51.356;12.458;2024-02-26T20:21:25;8.40;93.70
65034;DHT22;51601;51.356;12.458;2024-02-26T20:25:43;8.40;93.80
65034;DHT22;51601;51.356;12.458;2024-02-26T20:30:01;8.30;94.10
65034;DHT22;51601;51.356;12.458;2024-02-26T20:34:20;8.20;94.40
65034;DHT22;51601;51.356;12.458;2024-02-26T20:38:40;8.20;95.00
65034;DHT22;51601;51.356;12.458;2024-02-26T20:42:58;8.10;95.60
65034;DHT22;51601;51.356;12.458;2024-02-26T20:47:19;8.00;95.90
65034;DHT22;51601;51.356;12.458;2024-02-26T20:51:39;8.00;96.40
65034;DHT22;51601;51.356;12.458;2024-02-26T20:55:59;7.90;96.80
65034;DHT22;51601;51.356;12.458;2024-02-26T21:00:17;7.90;97.10
65034;DHT22;51601;51.356;12.458;2024-02-26T21:04:35;7.80;97.40
65034;DHT22;51601;51.356;12.458;2024-02-26T21:08:57;7.70;97.80
65034;DHT22;51601;51.356;12.458;2024-02-26T21:13:17;7.70;98.20
65034;DHT22;51601;51.356;12.458;2024-02-26T21:17:35;7.60;98.60
65034;DHT22;51601;51.356;12.458;2024-02-26T21:21:53;7.50;99.00
65034;DHT22;51601;51.356;12.458;2024-02-26T21:26:15;7.40;99.50
65034;DHT22;51601;51.356;12.458;2024-02-26T21:30:32;7.40;99.90
65034;DHT22;51601;51.356;12.458;2024-02-26T21:34:50;7.30;99.90
65034;DHT22;51601;51.356;12.458;2024-02-26T21:39:08;7.30;99.90
65034;DHT22;51601;51.356;12.458;2024-02-26T21:43:28;7.20;99.90
65034;DHT22;51601;51.356;12.458;2024-02-26T21:47:48;7.20;99.90
65034;DHT22;51601;51.356;12.458;2024-02-26T21:52:05;7.20;99.90
65034;DHT22;51601;51.356;12.458;2024-02-26T21:56:24;7.10;99.90
65034;DHT22;51601;51.356;12.458;2024-02-26T22:00:43;7.10;99.90
65034;DHT22;51601;51.356;12.458;2024-02-26T22:05:03;7.10;99.90
65034;DHT22;51601;51.356;12.458;2024-02-26T22:09:21;7.10;99.90
65034;DHT22;51601;51.356;12.458;2024-02-26T22:13:39;7.10;99.90
65034;DHT22;51601;51.356;12.458;2024-02-26T22:17:58;7.20;99.90
65034;DHT22;51601;51.356;12.458;2024-02-26T22:22:18;7.20;99.90
65034;DHT22;51601;51.356;12.458;2024-02-26T22:26:36;7.20;99.90
65034;DHT22;51601;51.356;12.458;2024-02-26T22:30:54;7.20;99.90
65034;DHT22;51601;51.356;12.458;2024-02-26T22:35:14;7.30;99.90
65034;DHT22;51601;51.356;12.458;2024-02-26T22:39:33;7.30;99.90
65034;DHT22;51601;51.356;12.458;2024-02-26T22:43:54;7.30;99.90
65034;DHT22;51601;51.356;12.458;2024-02-26T22:48:12;7.40;99.90
65034;DHT22;51601;51.356;12.458;2024-02-26T22:52:32;7.40;99.90
65034;DHT22;51601;51.356;12.458;2024-02-26T22:56:49;7.40;99.90
65034;DHT22;51601;51.356;12.458;2024-02-26T23:01:07;7.40;99.90
65034;DHT22;51601;51.356;12.458;2024-02-26T23:05:26;7.40;99.90
65034;DHT22;51601;51.356;12.458;2024-02-26T23:09:44;7.40;99.90
65034;DHT22;51601;51.356;12.458;2024-02-26T23:14:04;7.40;99.90
65034;DHT22;51601;51.356;12.458;2024-02-26T23:18:22;7.40;99.90
65034;DHT22;51601;51.356;12.458;2024-02-26T23:22:42;7.40;99.90
65034;DHT22;51601;51.356;12.458;2024-02-26T23:27:03;7.40;99.90
65034;DHT22;51601;51.356;12.458;2024-02-26T23:31:22;7.40;99.90
65034;DHT22;51601;51.356;12.458;2024-02-26T23:35:40;7.40;99.90
65034;DHT22;51601;51.356;12.458;2024-02-26T23:39:58;7.40;99.90
65034;DHT22;51601;51.356;12.458;2024-02-26T23:44:18;7.40;99.90
65034;DHT22;51601;51.356;12.458;2024-02-26T23:48:34;7.40;99.90
65034;DHT22;51601;51.356;12.458;2024-02-26T23:52:53;7.40;99.90
65034;DHT22;51601;51.356;12.458;2024-02-26T23:57:11;7.40;99.90
